Terminal Aerodrome Forecast
Issued by NWS Knoxville/Tri Cities, TN

Home | Current Version | Previous Version | Text Only | Print | Product List | Glossary On
Versions: 1 2 3 4 5 6 7 8 9 10 11 12 13 14 15 16 17 18 19 20 21 22 23 24 25 26 27 28 29 30 31 32 33 34 35 36 37 38 39 40
000
FTUS44 KMRX 200838 AAA
TAFTRI
TAF AMD
KTRI 200838Z 2009/2106 00000KT 4SM BR BKN035
      TEMPO 2009/2011 2SM BR
     FM201200 23005KT P6SM VCTS SCT020 BKN030CB
     FM201600 25007KT P6SM VCTS BKN040CB
     FM210100 00000KT P6SM SCT035 BKN150=

USA.gov is the U.S. government's official web portal to all federal, state and local government web resources and services.